createdAt,value
2023-05-24T00:00:11.234Z,16.09
2023-05-24T00:02:42.714Z,15.55
2023-05-24T00:05:12.000Z,15.78
2023-05-24T00:07:40.619Z,15.82
2023-05-24T00:10:11.421Z,15.97
2023-05-24T00:12:39.889Z,15.89
2023-05-24T00:15:09.971Z,16.16
2023-05-24T00:17:41.566Z,16.33
2023-05-24T00:20:14.467Z,16.42
2023-05-24T00:22:43.324Z,16.22
2023-05-24T00:25:11.865Z,15.99
2023-05-24T00:27:40.753Z,15.75
2023-05-24T00:30:09.900Z,15.47
2023-05-24T00:32:38.603Z,15.38
2023-05-24T00:35:08.543Z,15.27
2023-05-24T00:37:41.889Z,15.20
2023-05-24T00:40:11.702Z,14.84
2023-05-24T00:42:40.604Z,14.90
2023-05-24T00:45:10.595Z,14.47
2023-05-24T00:47:39.201Z,14.43
2023-05-24T00:50:11.781Z,14.21
2023-05-24T00:52:43.221Z,14.14
2023-05-24T00:55:14.039Z,14.19
2023-05-24T00:57:43.011Z,14.16
2023-05-24T01:00:13.474Z,14.08
2023-05-24T01:02:44.334Z,14.01
2023-05-24T01:05:13.691Z,14.19
2023-05-24T01:07:59.770Z,14.27
2023-05-24T01:10:39.938Z,13.99
2023-05-24T01:13:25.274Z,13.94
2023-05-24T01:16:01.873Z,13.86
2023-05-24T01:18:34.950Z,13.85
2023-05-24T01:21:22.294Z,13.96
2023-05-24T01:24:12.142Z,14.02
2023-05-24T01:26:59.471Z,13.74
2023-05-24T01:29:30.378Z,13.65
2023-05-24T01:32:00.509Z,13.41
2023-05-24T01:34:29.394Z,13.58
2023-05-24T01:36:57.971Z,13.90
2023-05-24T01:39:31.154Z,13.66
2023-05-24T01:42:12.690Z,13.72
2023-05-24T01:44:53.311Z,13.66
2023-05-24T01:47:35.751Z,13.78
2023-05-24T01:50:16.753Z,13.65
2023-05-24T01:52:48.496Z,13.60
2023-05-24T01:55:19.662Z,13.55
2023-05-24T01:57:52.297Z,13.45
2023-05-24T02:00:22.692Z,13.17
2023-05-24T02:02:53.656Z,13.23
2023-05-24T02:05:23.187Z,13.04
2023-05-24T02:07:51.969Z,12.98
2023-05-24T02:10:20.573Z,13.16
2023-05-24T02:12:50.485Z,13.27
2023-05-24T02:15:20.684Z,13.20
2023-05-24T02:17:49.276Z,13.15
2023-05-24T02:20:18.144Z,12.97
2023-05-24T02:22:46.569Z,13.20
2023-05-24T02:25:15.383Z,13.07
2023-05-24T02:27:47.041Z,13.16
2023-05-24T02:30:16.977Z,13.05
2023-05-24T02:32:45.600Z,12.94
2023-05-24T02:35:14.074Z,12.77
2023-05-24T02:37:42.659Z,12.96
2023-05-24T02:40:12.497Z,12.94
2023-05-24T02:42:43.553Z,12.81
2023-05-24T02:45:12.563Z,12.65
2023-05-24T02:47:42.423Z,12.89
2023-05-24T02:50:11.998Z,12.98
2023-05-24T02:52:40.403Z,12.83
2023-05-24T02:55:10.109Z,12.70
2023-05-24T02:57:39.051Z,12.69
2023-05-24T03:00:09.604Z,12.80
2023-05-24T03:02:41.020Z,12.59
2023-05-24T03:05:11.446Z,12.71
2023-05-24T03:07:40.958Z,12.61
2023-05-24T03:10:10.457Z,12.64
2023-05-24T03:12:38.868Z,12.37
2023-05-24T03:15:10.761Z,12.39
2023-05-24T03:17:39.407Z,12.53
2023-05-24T03:20:11.626Z,12.56
2023-05-24T03:22:40.268Z,12.56
2023-05-24T03:25:09.738Z,12.76
2023-05-24T03:27:40.496Z,12.81
2023-05-24T03:30:11.232Z,12.62
2023-05-24T03:32:51.082Z,12.86
2023-05-24T03:35:21.404Z,12.83
2023-05-24T03:37:50.893Z,12.93
2023-05-24T03:40:19.842Z,12.85
2023-05-24T03:42:59.581Z,12.93
2023-05-24T03:45:42.417Z,12.80
2023-05-24T03:48:11.239Z,13.00
2023-05-24T03:50:41.397Z,12.89
2023-05-24T03:53:10.072Z,12.73
2023-05-24T03:55:40.028Z,12.72
2023-05-24T03:58:08.645Z,12.73
2023-05-24T04:00:37.548Z,12.84
2023-05-24T04:03:06.795Z,12.88
2023-05-24T04:05:35.561Z,13.05
2023-05-24T04:08:06.432Z,12.98
2023-05-24T04:10:34.892Z,13.03
2023-05-24T04:13:03.779Z,13.06
2023-05-24T04:15:33.018Z,13.19
2023-05-24T04:18:03.321Z,13.46
2023-05-24T04:20:32.999Z,13.66
2023-05-24T04:23:01.452Z,13.45
2023-05-24T04:25:33.336Z,13.73
2023-05-24T04:28:02.483Z,13.83
2023-05-24T04:30:32.776Z,13.88
2023-05-24T04:33:02.031Z,14.11
2023-05-24T04:35:31.214Z,14.01
2023-05-24T04:38:00.801Z,13.96
2023-05-24T04:40:30.658Z,13.70
2023-05-24T04:42:59.081Z,13.76
2023-05-24T04:45:27.577Z,13.56
2023-05-24T04:47:56.008Z,13.47
2023-05-24T04:50:25.055Z,13.27
2023-05-24T04:52:53.867Z,13.69
2023-05-24T04:55:23.144Z,13.70
2023-05-24T04:57:53.308Z,13.90
2023-05-24T05:00:22.786Z,14.14
2023-05-24T05:02:51.677Z,14.04
2023-05-24T05:05:21.227Z,13.96
2023-05-24T05:07:49.799Z,13.96
2023-05-24T05:10:18.681Z,13.85
2023-05-24T05:12:47.236Z,13.99
2023-05-24T05:15:17.244Z,13.83
2023-05-24T05:17:45.782Z,13.60
2023-05-24T05:20:14.306Z,13.96
2023-05-24T05:22:47.954Z,14.09
2023-05-24T05:25:16.654Z,14.40
2023-05-24T05:27:45.196Z,14.16
2023-05-24T05:30:14.616Z,14.32
2023-05-24T05:32:44.438Z,14.11
2023-05-24T05:35:13.844Z,14.20
2023-05-24T05:37:42.277Z,14.10
2023-05-24T05:40:11.946Z,14.21
2023-05-24T05:42:40.372Z,13.80
2023-05-24T05:45:10.086Z,14.37
2023-05-24T05:47:38.615Z,14.31
2023-05-24T05:50:09.875Z,14.50
2023-05-24T05:52:38.360Z,14.35
2023-05-24T05:55:08.684Z,13.63
2023-05-24T05:57:37.164Z,13.75
2023-05-24T06:00:07.042Z,14.34
2023-05-24T06:02:40.630Z,14.29
2023-05-24T06:05:11.001Z,14.37
2023-05-24T06:07:39.660Z,14.17
2023-05-24T06:10:09.286Z,14.45
2023-05-24T06:12:38.042Z,14.61
2023-05-24T06:15:08.341Z,14.79
2023-05-24T06:17:38.825Z,14.65
2023-05-24T06:20:12.097Z,14.85
2023-05-24T06:22:42.682Z,14.45
2023-05-24T06:25:15.464Z,14.41
2023-05-24T06:27:43.985Z,14.31
2023-05-24T06:30:14.124Z,14.41
2023-05-24T06:32:42.641Z,14.47
2023-05-24T06:35:12.368Z,14.79
2023-05-24T06:37:42.569Z,14.95
2023-05-24T06:40:12.037Z,15.21
2023-05-24T06:42:40.759Z,14.95
2023-05-24T06:45:10.920Z,14.94
2023-05-24T06:47:39.530Z,14.67
2023-05-24T06:50:10.126Z,14.31
2023-05-24T06:52:38.648Z,14.90
2023-05-24T06:55:09.698Z,15.18
2023-05-24T06:57:38.276Z,14.77
2023-05-24T07:00:11.993Z,15.01
2023-05-24T07:02:40.924Z,15.37
2023-05-24T07:05:12.222Z,15.42
2023-05-24T07:07:41.455Z,15.56
2023-05-24T07:10:12.782Z,15.17
2023-05-24T07:12:41.630Z,14.90
2023-05-24T07:15:11.344Z,14.71
2023-05-24T07:17:39.928Z,14.49
2023-05-24T07:20:11.329Z,14.60
2023-05-24T07:22:39.859Z,14.68
2023-05-24T07:25:09.364Z,14.80
2023-05-24T07:27:39.252Z,15.14
2023-05-24T07:30:23.671Z,14.96
2023-05-24T07:32:58.946Z,14.71
2023-05-24T07:35:28.649Z,15.18
2023-05-24T07:37:57.117Z,15.40
2023-05-24T07:40:26.614Z,15.36
2023-05-24T07:42:56.453Z,15.49
2023-05-24T07:45:24.950Z,15.68
2023-05-24T07:47:55.293Z,15.57
2023-05-24T07:50:26.468Z,15.10
2023-05-24T07:52:55.165Z,14.94
2023-05-24T07:55:24.836Z,14.65
2023-05-24T07:57:53.385Z,15.10
2023-05-24T08:00:23.759Z,15.27
2023-05-24T08:02:52.356Z,15.20
2023-05-24T08:05:20.952Z,14.70
2023-05-24T08:07:49.436Z,14.81
2023-05-24T08:10:18.752Z,14.85
2023-05-24T08:12:47.323Z,14.86
2023-05-24T08:15:15.718Z,14.92
2023-05-24T08:17:45.683Z,14.94
2023-05-24T08:20:15.676Z,14.25
2023-05-24T08:22:44.998Z,14.19
2023-05-24T08:25:13.857Z,14.17
2023-05-24T08:27:42.516Z,13.79
2023-05-24T08:30:13.488Z,14.05
2023-05-24T08:32:42.121Z,14.42
2023-05-24T08:37:47.392Z,14.90
2023-05-24T08:40:16.029Z,15.11
2023-05-24T08:42:46.386Z,15.50
2023-05-24T08:45:16.490Z,15.96
2023-05-24T08:47:46.124Z,16.13
2023-05-24T08:50:16.518Z,15.75
2023-05-24T08:52:47.210Z,15.50
2023-05-24T08:55:16.877Z,15.92
2023-05-24T08:57:47.794Z,15.52
2023-05-24T09:00:18.113Z,16.13
2023-05-24T09:02:48.147Z,15.82
2023-05-24T09:05:21.682Z,16.21
2023-05-24T09:07:51.631Z,15.51
2023-05-24T09:10:23.336Z,15.42
2023-05-24T09:12:57.549Z,15.66
2023-05-24T09:15:26.345Z,15.95
2023-05-24T09:17:55.980Z,15.97
2023-05-24T09:20:26.777Z,16.20
2023-05-24T09:22:55.778Z,16.24
2023-05-24T09:25:29.324Z,16.29
2023-05-24T09:27:57.855Z,16.98
2023-05-24T09:30:26.307Z,17.47
2023-05-24T09:32:59.860Z,16.98
2023-05-24T09:35:31.438Z,17.24
2023-05-24T09:38:00.852Z,17.12
2023-05-24T09:40:30.822Z,16.64
2023-05-24T09:43:08.853Z,16.20
2023-05-24T09:45:46.481Z,15.77
2023-05-24T09:48:17.254Z,15.71
2023-05-24T09:51:00.475Z,15.71
2023-05-24T09:53:29.058Z,16.16
2023-05-24T09:55:57.781Z,16.07
2023-05-24T09:58:32.372Z,16.75
2023-05-24T10:01:10.819Z,17.52
2023-05-24T10:03:39.758Z,17.26
2023-05-24T10:06:13.867Z,17.03
2023-05-24T10:08:43.359Z,16.88
2023-05-24T10:11:11.889Z,16.45
2023-05-24T10:13:41.422Z,15.91
2023-05-24T10:16:10.116Z,15.34
2023-05-24T10:18:40.113Z,15.78
2023-05-24T10:21:12.004Z,15.91
2023-05-24T10:23:45.582Z,16.09
2023-05-24T10:26:15.913Z,16.69
2023-05-24T10:28:52.573Z,16.22
2023-05-24T10:31:26.721Z,16.86
2023-05-24T10:34:07.060Z,16.65
2023-05-24T10:36:40.347Z,17.04
2023-05-24T10:39:14.027Z,17.36
2023-05-24T10:41:43.367Z,17.68
2023-05-24T10:44:13.649Z,17.32
2023-05-24T10:47:11.296Z,17.42
2023-05-24T10:49:40.857Z,17.37
2023-05-24T10:52:12.539Z,17.42
2023-05-24T10:54:49.684Z,17.78
2023-05-24T10:57:29.166Z,18.24
2023-05-24T10:59:58.663Z,17.93
2023-05-24T11:02:35.893Z,17.45
2023-05-24T11:05:08.133Z,18.06
2023-05-24T11:07:43.470Z,17.93
2023-05-24T11:10:17.341Z,17.48
2023-05-24T11:12:45.977Z,18.34
2023-05-24T11:15:24.316Z,17.56
2023-05-24T11:18:15.527Z,18.17
2023-05-24T11:20:46.958Z,18.21
2023-05-24T11:23:18.152Z,18.37
2023-05-24T11:25:49.173Z,17.42
2023-05-24T11:28:19.508Z,18.12
2023-05-24T11:30:49.502Z,18.00
2023-05-24T11:33:20.073Z,17.40
2023-05-24T11:35:48.987Z,17.75
2023-05-24T11:38:24.214Z,17.13
2023-05-24T11:40:54.003Z,17.31
2023-05-24T11:43:22.924Z,17.92
2023-05-24T11:45:53.113Z,18.09
2023-05-24T11:48:21.755Z,18.29
2023-05-24T11:50:50.743Z,18.89
2023-05-24T11:53:21.734Z,19.33
2023-05-24T11:55:51.404Z,18.90
2023-05-24T11:58:24.961Z,18.64
2023-05-24T12:00:54.241Z,19.04
2023-05-24T12:03:23.094Z,18.47
2023-05-24T12:05:52.786Z,18.76
2023-05-24T12:08:22.855Z,18.20
2023-05-24T12:10:51.873Z,18.02
2023-05-24T12:13:24.257Z,18.07
2023-05-24T12:15:56.302Z,18.63
2023-05-24T12:18:27.289Z,18.67
2023-05-24T12:20:55.944Z,18.22
2023-05-24T12:23:28.600Z,18.17
2023-05-24T12:26:01.015Z,17.55
2023-05-24T12:28:36.207Z,17.74
2023-05-24T12:31:05.648Z,18.68
2023-05-24T12:33:35.785Z,19.22
2023-05-24T12:36:04.418Z,19.28
2023-05-24T12:38:34.403Z,19.01
2023-05-24T12:41:13.062Z,18.42
2023-05-24T12:43:44.794Z,19.30
2023-05-24T12:46:13.926Z,19.80
2023-05-24T12:48:42.458Z,19.69
2023-05-24T12:51:11.349Z,18.22
2023-05-24T12:53:41.536Z,18.54
2023-05-24T12:56:10.314Z,18.22
2023-05-24T12:58:38.789Z,18.04
2023-05-24T13:01:07.350Z,18.62
2023-05-24T13:03:36.270Z,18.58
2023-05-24T13:06:05.058Z,19.00
2023-05-24T13:08:33.880Z,19.66
2023-05-24T13:11:03.766Z,20.01
2023-05-24T13:13:32.618Z,19.32
2023-05-24T13:16:01.030Z,19.85
2023-05-24T13:18:30.401Z,19.72
2023-05-24T13:21:00.489Z,19.16
2023-05-24T13:23:28.961Z,19.45
2023-05-24T13:25:57.409Z,19.84
2023-05-24T13:28:28.895Z,19.89
2023-05-24T13:30:57.363Z,19.01
2023-05-24T13:33:26.425Z,19.53
2023-05-24T13:35:55.365Z,19.69
2023-05-24T13:38:24.290Z,18.44
2023-05-24T13:40:53.804Z,18.28
2023-05-24T13:43:22.691Z,19.95
2023-05-24T13:45:52.798Z,20.75
2023-05-24T13:48:21.723Z,20.10
2023-05-24T13:50:50.557Z,20.17
2023-05-24T13:53:19.174Z,20.72
2023-05-24T13:55:47.896Z,20.07
2023-05-24T13:58:16.671Z,19.90
2023-05-24T14:00:45.251Z,19.89
2023-05-24T14:03:15.976Z,19.18
2023-05-24T14:05:44.902Z,18.64
2023-05-24T14:08:13.872Z,18.27
2023-05-24T14:10:42.374Z,18.74
2023-05-24T14:13:32.117Z,18.48
2023-05-24T14:15:59.416Z,18.44
2023-05-24T14:18:29.445Z,19.04
2023-05-24T14:20:57.952Z,19.01
2023-05-24T14:23:27.030Z,18.74
2023-05-24T14:25:55.554Z,18.85
2023-05-24T14:28:24.235Z,18.41
2023-05-24T14:30:52.878Z,18.18
2023-05-24T14:33:21.428Z,17.97
2023-05-24T14:35:52.493Z,18.13
2023-05-24T14:38:23.185Z,18.86
2023-05-24T14:40:52.041Z,18.95
2023-05-24T14:43:20.748Z,18.25
2023-05-24T14:45:49.379Z,19.43
2023-05-24T14:48:18.251Z,19.55
2023-05-24T14:50:46.817Z,19.00
2023-05-24T14:53:16.847Z,18.60
2023-05-24T14:55:45.714Z,19.02
2023-05-24T14:58:14.643Z,19.14
2023-05-24T15:00:44.039Z,19.05
2023-05-24T15:03:14.609Z,19.44
2023-05-24T15:05:43.666Z,19.16
2023-05-24T15:08:12.348Z,19.11
2023-05-24T15:10:44.437Z,19.81
2023-05-24T15:13:13.612Z,19.88
2023-05-24T15:15:43.296Z,19.34
2023-05-24T15:18:12.173Z,19.98
2023-05-24T15:20:41.321Z,19.56
2023-05-24T15:23:10.863Z,19.85
2023-05-24T15:25:42.840Z,19.43
2023-05-24T15:28:12.912Z,19.58
2023-05-24T15:30:44.129Z,19.02
2023-05-24T15:33:13.377Z,18.66
2023-05-24T15:35:42.357Z,18.14
2023-05-24T15:38:11.139Z,18.08
2023-05-24T15:40:42.567Z,17.71
2023-05-24T15:43:11.402Z,17.43
2023-05-24T15:45:40.425Z,17.24
2023-05-24T15:48:08.924Z,17.57
2023-05-24T15:50:59.853Z,17.34
2023-05-24T15:53:26.384Z,17.55
2023-05-24T15:55:57.390Z,17.32
2023-05-24T15:58:25.963Z,17.60
2023-05-24T16:00:54.606Z,17.51
2023-05-24T16:03:23.342Z,17.87
2023-05-24T16:05:52.063Z,18.48
2023-05-24T16:08:23.277Z,18.68
2023-05-24T16:10:52.106Z,18.38
2023-05-24T16:13:21.993Z,18.76
2023-05-24T16:15:51.623Z,19.43
2023-05-24T16:18:22.593Z,19.45
2023-05-24T16:20:52.564Z,18.64
2023-05-24T16:23:22.846Z,18.09
2023-05-24T16:25:52.613Z,18.21
2023-05-24T16:28:24.649Z,17.97
2023-05-24T16:30:55.962Z,17.97
2023-05-24T16:33:25.313Z,17.87
2023-05-24T16:35:56.471Z,17.87
2023-05-24T16:38:26.501Z,17.62
2023-05-24T16:40:55.111Z,17.55
2023-05-24T16:43:25.814Z,18.03
2023-05-24T16:45:55.174Z,18.11
2023-05-24T16:48:28.361Z,18.07
2023-05-24T16:50:57.810Z,18.51
2023-05-24T16:53:28.110Z,18.51
2023-05-24T16:55:58.013Z,18.75
2023-05-24T16:58:29.900Z,18.25
2023-05-24T17:00:58.764Z,18.17
2023-05-24T17:03:29.392Z,18.15
2023-05-24T17:06:03.527Z,18.35
2023-05-24T17:08:35.070Z,17.82
2023-05-24T17:11:03.901Z,17.40
2023-05-24T17:13:34.189Z,17.49
2023-05-24T17:16:05.059Z,17.39
2023-05-24T17:18:33.586Z,17.20
2023-05-24T17:21:04.704Z,17.46
2023-05-24T17:23:34.840Z,17.34
2023-05-24T17:26:03.618Z,17.28
2023-05-24T17:28:36.636Z,17.39
2023-05-24T17:31:05.544Z,17.10
2023-05-24T17:33:34.100Z,17.49
2023-05-24T17:36:04.363Z,17.76
2023-05-24T17:38:33.889Z,17.53
2023-05-24T17:41:02.328Z,17.42
2023-05-24T17:43:32.743Z,17.61
2023-05-24T17:46:07.106Z,17.27
2023-05-24T17:48:37.938Z,17.21
2023-05-24T17:51:08.523Z,16.73
2023-05-24T17:53:40.908Z,16.76
2023-05-24T17:56:09.846Z,16.37
2023-05-24T17:58:38.302Z,16.66
2023-05-24T18:01:12.358Z,16.58
2023-05-24T18:03:42.530Z,16.13
2023-05-24T18:06:11.766Z,16.23
2023-05-24T18:08:43.320Z,16.04
2023-05-24T18:11:13.253Z,15.98
2023-05-24T18:13:43.683Z,16.07
2023-05-24T18:16:14.680Z,15.83
2023-05-24T18:18:44.082Z,15.83
2023-05-24T18:21:13.111Z,15.87
2023-05-24T18:23:43.333Z,15.82
2023-05-24T18:26:13.065Z,15.90
2023-05-24T18:28:42.261Z,15.86
2023-05-24T18:31:11.440Z,15.50
2023-05-24T18:33:41.812Z,15.54
2023-05-24T18:36:10.708Z,15.58
2023-05-24T18:38:40.290Z,15.51
2023-05-24T18:41:10.193Z,15.41
2023-05-24T18:43:39.174Z,15.45
2023-05-24T18:46:08.909Z,15.42
2023-05-24T18:48:37.453Z,15.21
2023-05-24T18:51:07.940Z,15.17
2023-05-24T18:53:36.960Z,15.19
2023-05-24T18:56:05.982Z,15.02
2023-05-24T18:58:34.461Z,14.98
2023-05-24T19:01:02.968Z,14.88
2023-05-24T19:03:31.532Z,14.90
2023-05-24T19:06:00.084Z,14.96
2023-05-24T19:08:30.778Z,14.82
2023-05-24T19:10:59.317Z,14.63
2023-05-24T19:13:27.886Z,14.72
2023-05-24T19:15:57.468Z,14.63
2023-05-24T19:18:25.919Z,14.58
2023-05-24T19:20:54.676Z,14.68
2023-05-24T19:23:23.176Z,14.91
2023-05-24T19:25:53.113Z,14.85
2023-05-24T19:28:21.624Z,14.78
2023-05-24T19:30:50.335Z,14.73
2023-05-24T19:33:18.957Z,14.66
2023-05-24T19:35:47.460Z,14.54
2023-05-24T19:38:17.704Z,14.40
2023-05-24T19:40:46.432Z,14.43
2023-05-24T19:43:16.275Z,14.33
2023-05-24T19:45:45.355Z,14.31
2023-05-24T19:48:13.975Z,14.30
2023-05-24T19:50:42.475Z,14.21
2023-05-24T19:53:10.935Z,14.33
2023-05-24T19:55:39.424Z,14.35
2023-05-24T19:58:07.915Z,14.21
2023-05-24T20:00:37.929Z,14.30
2023-05-24T20:03:06.578Z,14.13
2023-05-24T20:05:35.155Z,14.11
2023-05-24T20:08:04.003Z,14.08
2023-05-24T20:10:35.921Z,13.90
2023-05-24T20:13:04.665Z,13.88
2023-05-24T20:15:33.114Z,13.82
2023-05-24T20:18:03.011Z,13.76
2023-05-24T20:20:31.784Z,13.54
2023-05-24T20:23:00.207Z,13.68
2023-05-24T20:25:28.844Z,13.64
2023-05-24T20:27:57.309Z,13.67
2023-05-24T20:30:26.367Z,13.49
2023-05-24T20:32:54.832Z,13.63
2023-05-24T20:35:24.628Z,13.46
2023-05-24T20:37:53.046Z,13.58
2023-05-24T20:40:24.972Z,13.39
2023-05-24T20:42:53.554Z,13.47
2023-05-24T20:45:22.382Z,13.59
2023-05-24T20:47:50.915Z,13.25
2023-05-24T20:50:19.374Z,13.21
2023-05-24T20:52:49.163Z,13.35
2023-05-24T20:55:18.895Z,13.18
2023-05-24T20:57:47.867Z,13.03
2023-05-24T21:00:16.894Z,13.17
2023-05-24T21:02:45.522Z,13.21
2023-05-24T21:05:14.110Z,13.12
2023-05-24T21:07:42.630Z,13.14
2023-05-24T21:10:18.249Z,13.08
2023-05-24T21:12:48.850Z,12.94
2023-05-24T21:15:17.720Z,13.04
2023-05-24T21:17:46.177Z,13.08
2023-05-24T21:20:14.844Z,13.01
2023-05-24T21:22:43.741Z,13.15
2023-05-24T21:25:13.645Z,13.01
2023-05-24T21:27:42.088Z,12.99
2023-05-24T21:30:11.557Z,13.08
2023-05-24T21:32:40.058Z,13.05
2023-05-24T21:35:09.456Z,13.07
2023-05-24T21:37:37.994Z,12.96
2023-05-24T21:40:07.813Z,12.92
2023-05-24T21:42:37.825Z,12.87
2023-05-24T21:45:07.757Z,13.07
2023-05-24T21:47:36.505Z,12.88
2023-05-24T21:50:05.369Z,12.82
2023-05-24T21:52:33.863Z,13.02
2023-05-24T21:55:02.306Z,13.04
2023-05-24T21:57:30.773Z,12.80
2023-05-24T22:00:00.561Z,13.14
2023-05-24T22:02:30.276Z,12.84
2023-05-24T22:04:59.046Z,13.05
2023-05-24T22:07:27.508Z,13.01
2023-05-24T22:09:56.155Z,13.07
2023-05-24T22:12:24.604Z,13.05
2023-05-24T22:14:53.074Z,13.17
2023-05-24T22:17:23.126Z,13.13
2023-05-24T22:19:53.041Z,13.29
2023-05-24T22:22:22.771Z,13.37
2023-05-24T22:24:51.247Z,13.30
2023-05-24T22:27:20.831Z,13.34
2023-05-24T22:29:52.146Z,13.42
2023-05-24T22:32:22.058Z,13.34
2023-05-24T22:34:50.703Z,13.36
2023-05-24T22:37:19.310Z,13.34
2023-05-24T22:39:47.835Z,13.20
2023-05-24T22:42:16.264Z,12.93
2023-05-24T22:44:46.319Z,12.91
2023-05-24T22:47:16.268Z,13.08
2023-05-24T22:49:46.060Z,13.18
2023-05-24T22:52:15.100Z,13.20
2023-05-24T22:54:43.543Z,13.35
2023-05-24T22:57:11.950Z,13.46
2023-05-24T22:59:42.714Z,13.77
2023-05-24T23:02:11.177Z,14.01
2023-05-24T23:04:39.839Z,14.08
2023-05-24T23:07:09.656Z,14.10
2023-05-24T23:09:41.476Z,14.05
2023-05-24T23:12:11.029Z,14.07
2023-05-24T23:14:41.773Z,13.76
2023-05-24T23:17:13.433Z,13.91
2023-05-24T23:19:43.280Z,13.89
2023-05-24T23:22:18.346Z,13.87
2023-05-24T23:24:47.597Z,13.62
2023-05-24T23:27:16.327Z,13.61
2023-05-24T23:29:45.531Z,13.57
2023-05-24T23:32:14.065Z,13.54
2023-05-24T23:34:42.545Z,13.54
2023-05-24T23:37:12.417Z,13.55
2023-05-24T23:39:40.824Z,13.70
2023-05-24T23:42:09.355Z,13.68
2023-05-24T23:44:37.788Z,13.57
2023-05-24T23:47:06.735Z,13.55
2023-05-24T23:49:35.403Z,13.45
2023-05-24T23:52:03.801Z,13.57
2023-05-24T23:54:33.986Z,13.50
2023-05-24T23:57:03.870Z,13.51
2023-05-24T23:59:32.260Z,13.47
